createdAt,value
2019-01-18T00:00:35.223Z,954.58
2019-01-18T00:01:35.192Z,954.58
2019-01-18T00:02:35.181Z,954.61
2019-01-18T00:03:35.193Z,954.57
2019-01-18T00:04:35.162Z,954.62
2019-01-18T00:05:35.159Z,954.63
2019-01-18T00:06:35.139Z,954.60
2019-01-18T00:07:35.133Z,954.68
2019-01-18T00:08:35.119Z,954.69
2019-01-18T00:09:35.132Z,954.71
2019-01-18T00:10:35.099Z,954.70
2019-01-18T00:11:35.090Z,954.67
2019-01-18T00:12:35.078Z,954.69
2019-01-18T00:13:35.077Z,954.70
2019-01-18T00:14:35.058Z,954.71
2019-01-18T00:15:35.054Z,954.70
2019-01-18T00:16:35.039Z,954.66
2019-01-18T00:17:35.031Z,954.75
2019-01-18T00:18:35.023Z,954.72
2019-01-18T00:19:35.014Z,954.74
2019-01-18T00:20:35.002Z,954.69
2019-01-18T00:21:34.992Z,954.75
2019-01-18T00:22:34.980Z,954.75
2019-01-18T00:23:34.969Z,954.76
2019-01-18T00:24:34.972Z,954.75
2019-01-18T00:25:34.965Z,954.70
2019-01-18T00:26:34.942Z,954.60
2019-01-18T00:27:34.930Z,954.56
2019-01-18T00:28:34.921Z,954.60
2019-01-18T00:29:34.926Z,954.55
2019-01-18T00:30:34.924Z,954.65
2019-01-18T00:31:34.911Z,954.62
2019-01-18T00:32:34.880Z,954.67
2019-01-18T00:33:34.874Z,954.65
2019-01-18T00:34:34.861Z,954.65
2019-01-18T00:35:34.851Z,954.69
2019-01-18T00:36:34.845Z,954.69
2019-01-18T00:37:34.830Z,954.72
2019-01-18T00:38:34.836Z,954.72
2019-01-18T00:39:34.811Z,954.77
2019-01-18T00:40:34.801Z,954.71
2019-01-18T00:41:34.799Z,954.70
2019-01-18T00:42:34.780Z,954.73
2019-01-18T00:43:34.772Z,954.75
2019-01-18T00:44:34.781Z,954.78
2019-01-18T00:45:34.762Z,954.75
2019-01-18T00:46:34.740Z,954.80
2019-01-18T00:47:34.733Z,954.80
2019-01-18T00:48:34.723Z,954.83
2019-01-18T00:49:34.711Z,954.83
2019-01-18T00:50:34.701Z,954.85
2019-01-18T00:51:34.715Z,954.83
2019-01-18T00:52:34.701Z,954.83
2019-01-18T00:53:34.671Z,954.88
2019-01-18T00:54:34.659Z,954.90
2019-01-18T00:55:34.664Z,954.88
2019-01-18T00:56:34.638Z,954.89
2019-01-18T00:57:34.636Z,954.87
2019-01-18T00:58:34.617Z,954.89
2019-01-18T00:59:36.428Z,954.87
2019-01-18T01:00:34.602Z,954.92
2019-01-18T01:01:34.587Z,954.94
2019-01-18T01:02:34.581Z,954.95
2019-01-18T01:03:34.574Z,954.91
2019-01-18T01:04:34.558Z,954.95
2019-01-18T01:05:34.547Z,955.02
2019-01-18T01:06:34.538Z,955.02
2019-01-18T01:07:34.527Z,955.02
2019-01-18T01:08:34.534Z,955.04
2019-01-18T01:09:34.507Z,955.03
2019-01-18T01:10:34.496Z,955.11
2019-01-18T01:11:34.487Z,955.12
2019-01-18T01:12:34.481Z,955.15
2019-01-18T01:13:34.468Z,955.22
2019-01-18T01:14:34.456Z,955.24
2019-01-18T01:15:34.446Z,955.19
2019-01-18T01:16:34.448Z,955.28
2019-01-18T01:17:34.423Z,955.27
2019-01-18T01:18:34.419Z,955.26
2019-01-18T01:19:34.431Z,955.26
2019-01-18T01:20:34.402Z,955.21
2019-01-18T01:21:34.382Z,955.24
2019-01-18T01:22:34.429Z,955.26
2019-01-18T01:23:34.400Z,955.26
2019-01-18T01:24:34.353Z,955.26
2019-01-18T01:25:34.348Z,955.27
2019-01-18T01:26:34.348Z,955.28
2019-01-18T01:27:34.337Z,955.41
2019-01-18T01:28:34.313Z,955.31
2019-01-18T01:29:34.303Z,955.36
2019-01-18T01:30:34.293Z,955.40
2019-01-18T01:31:34.282Z,955.40
2019-01-18T01:32:34.273Z,955.41
2019-01-18T01:33:34.263Z,955.42
2019-01-18T01:34:34.253Z,955.44
2019-01-18T01:35:34.241Z,955.52
2019-01-18T01:36:34.230Z,955.49
2019-01-18T01:37:34.243Z,955.42
2019-01-18T01:38:34.218Z,955.41
2019-01-18T01:39:34.251Z,955.44
2019-01-18T01:40:34.190Z,955.44
2019-01-18T01:41:34.180Z,955.36
2019-01-18T01:42:34.184Z,955.57
2019-01-18T01:43:34.158Z,955.58
2019-01-18T01:44:34.146Z,955.65
2019-01-18T01:45:34.136Z,955.62
2019-01-18T01:46:34.131Z,955.60
2019-01-18T01:47:34.114Z,955.60
2019-01-18T01:48:34.107Z,955.66
2019-01-18T01:49:34.095Z,955.71
2019-01-18T01:50:34.099Z,955.67
2019-01-18T01:51:34.072Z,955.72
2019-01-18T01:52:34.079Z,955.71
2019-01-18T01:53:34.051Z,955.64
2019-01-18T01:54:34.041Z,955.66
2019-01-18T01:55:34.032Z,955.69
2019-01-18T01:56:34.022Z,955.74
2019-01-18T01:57:34.015Z,955.71
2019-01-18T01:58:34.004Z,955.79
2019-01-18T01:59:33.992Z,955.81
2019-01-18T02:00:33.985Z,955.82
2019-01-18T02:01:33.969Z,955.81
2019-01-18T02:02:33.980Z,955.80
2019-01-18T02:03:33.949Z,955.83
2019-01-18T02:04:33.940Z,955.81
2019-01-18T02:05:33.932Z,955.89
2019-01-18T02:06:33.919Z,955.88
2019-01-18T02:07:33.926Z,955.85
2019-01-18T02:08:33.904Z,955.90
2019-01-18T02:09:33.891Z,955.93
2019-01-18T02:10:33.881Z,955.95
2019-01-18T02:11:33.868Z,956.02
2019-01-18T02:12:33.876Z,956.05
2019-01-18T02:13:33.850Z,956.06
2019-01-18T02:14:33.835Z,956.11
2019-01-18T02:15:33.834Z,956.09
2019-01-18T02:16:33.842Z,956.07
2019-01-18T02:17:33.808Z,956.08
2019-01-18T02:18:33.805Z,956.10
2019-01-18T02:19:33.814Z,956.09
2019-01-18T02:20:33.781Z,956.06
2019-01-18T02:21:33.770Z,956.13
2019-01-18T02:22:33.782Z,956.09
2019-01-18T02:23:33.764Z,956.08
2019-01-18T02:24:33.738Z,956.12
2019-01-18T02:25:33.735Z,956.10
2019-01-18T02:26:33.728Z,956.13
2019-01-18T02:27:33.715Z,956.14
2019-01-18T02:28:33.709Z,956.14
2019-01-18T02:29:33.692Z,956.17
2019-01-18T02:30:33.678Z,956.21
2019-01-18T02:31:33.669Z,956.21
2019-01-18T02:32:33.661Z,956.25
2019-01-18T02:33:35.316Z,956.27
2019-01-18T02:34:33.652Z,956.33
2019-01-18T02:35:33.627Z,956.31
2019-01-18T02:36:33.627Z,956.36
2019-01-18T02:37:33.624Z,956.38
2019-01-18T02:38:33.600Z,956.41
2019-01-18T02:39:33.591Z,956.39
2019-01-18T02:40:33.584Z,956.43
2019-01-18T02:41:33.569Z,956.44
2019-01-18T02:42:33.561Z,956.45
2019-01-18T02:43:33.552Z,956.39
2019-01-18T02:44:33.562Z,956.40
2019-01-18T02:45:33.534Z,956.44
2019-01-18T02:46:33.534Z,956.44
2019-01-18T02:47:33.521Z,956.39
2019-01-18T02:48:33.524Z,956.48
2019-01-18T02:49:33.497Z,956.49
2019-01-18T02:50:33.484Z,956.50
2019-01-18T02:51:33.480Z,956.54
2019-01-18T02:52:33.466Z,956.51
2019-01-18T02:53:33.459Z,956.50
2019-01-18T02:54:33.445Z,956.53
2019-01-18T02:55:33.434Z,956.52
2019-01-18T02:56:33.422Z,956.55
2019-01-18T02:57:33.415Z,956.53
2019-01-18T02:58:33.404Z,956.58
2019-01-18T02:59:33.391Z,956.58
2019-01-18T03:00:33.388Z,956.62
2019-01-18T03:01:33.380Z,956.65
2019-01-18T03:02:33.362Z,956.62
2019-01-18T03:03:33.358Z,956.68
2019-01-18T03:04:33.343Z,956.70
2019-01-18T03:05:33.334Z,956.65
2019-01-18T03:06:33.321Z,956.66
2019-01-18T03:07:33.315Z,956.71
2019-01-18T03:08:33.338Z,956.72
2019-01-18T03:09:33.315Z,956.74
2019-01-18T03:10:33.305Z,956.78
2019-01-18T03:11:33.309Z,956.75
2019-01-18T03:12:33.266Z,956.85
2019-01-18T03:13:33.255Z,956.88
2019-01-18T03:14:33.245Z,956.89
2019-01-18T03:15:33.232Z,956.88
2019-01-18T03:16:33.221Z,956.93
2019-01-18T03:17:33.208Z,956.93
2019-01-18T03:18:33.225Z,956.94
2019-01-18T03:19:33.194Z,957.03
2019-01-18T03:20:33.181Z,956.92
2019-01-18T03:21:33.192Z,957.01
2019-01-18T03:22:33.158Z,956.96
2019-01-18T03:23:33.157Z,956.97
2019-01-18T03:24:33.150Z,957.04
2019-01-18T03:25:33.162Z,957.04
2019-01-18T03:26:33.148Z,957.07
2019-01-18T03:27:33.118Z,957.10
2019-01-18T03:28:33.105Z,957.11
2019-01-18T03:29:33.088Z,957.16
2019-01-18T03:30:33.078Z,957.13
2019-01-18T03:31:33.100Z,957.13
2019-01-18T03:32:33.061Z,957.12
2019-01-18T03:33:33.047Z,957.17
2019-01-18T03:34:33.035Z,957.15
2019-01-18T03:35:33.078Z,957.19
2019-01-18T03:36:33.041Z,957.18
2019-01-18T03:37:33.013Z,957.23
2019-01-18T03:38:33.003Z,957.30
2019-01-18T03:39:32.993Z,957.26
2019-01-18T03:40:32.977Z,957.35
2019-01-18T03:41:32.999Z,957.38
2019-01-18T03:42:32.977Z,957.32
2019-01-18T03:43:32.953Z,957.39
2019-01-18T03:44:32.937Z,957.44
2019-01-18T03:45:32.935Z,957.46
2019-01-18T03:46:32.913Z,957.49
2019-01-18T03:47:32.905Z,957.49
2019-01-18T03:48:32.895Z,957.56
2019-01-18T03:49:32.884Z,957.55
2019-01-18T03:50:32.872Z,957.59
2019-01-18T03:51:32.866Z,957.50
2019-01-18T03:52:32.852Z,957.56
2019-01-18T03:53:32.885Z,957.57
2019-01-18T03:54:32.835Z,957.53
2019-01-18T03:55:32.818Z,957.63
2019-01-18T03:56:32.857Z,957.58
2019-01-18T03:57:32.799Z,957.68
2019-01-18T03:58:32.811Z,957.64
2019-01-18T03:59:32.807Z,957.68
2019-01-18T04:00:32.776Z,957.69
2019-01-18T04:01:32.760Z,957.74
2019-01-18T04:02:32.782Z,957.76
2019-01-18T04:03:32.741Z,957.77
2019-01-18T04:04:40.221Z,957.80
2019-01-18T04:06:26.460Z,957.87
2019-01-18T04:07:26.253Z,957.95
2019-01-18T04:09:19.202Z,958.00
2019-01-18T04:10:19.160Z,958.01
2019-01-18T04:12:12.571Z,958.08
2019-01-18T04:13:12.508Z,958.10
2019-01-18T04:15:05.924Z,958.13
2019-01-18T04:16:05.787Z,958.18
2019-01-18T04:17:58.779Z,958.16
2019-01-18T04:18:58.643Z,958.25
2019-01-18T04:20:52.144Z,958.23
2019-01-18T04:21:51.936Z,958.30
2019-01-18T04:23:45.085Z,958.38
2019-01-18T04:24:44.848Z,958.41
2019-01-18T04:26:38.308Z,958.44
2019-01-18T04:27:38.554Z,958.46
2019-01-18T04:29:31.106Z,958.50
2019-01-18T04:30:33.661Z,958.47
2019-01-18T04:32:23.966Z,958.51
2019-01-18T04:33:23.993Z,958.51
2019-01-18T04:35:16.870Z,958.54
2019-01-18T04:36:16.780Z,958.53
2019-01-18T04:38:10.253Z,958.52
2019-01-18T04:39:10.143Z,958.59
2019-01-18T04:41:03.575Z,958.62
2019-01-18T04:42:03.424Z,958.63
2019-01-18T04:43:56.404Z,958.69
2019-01-18T04:44:56.250Z,958.66
2019-01-18T04:46:49.660Z,958.72
2019-01-18T04:47:49.647Z,958.74
2019-01-18T04:49:42.752Z,958.77
2019-01-18T04:50:42.657Z,958.80
2019-01-18T04:52:36.160Z,958.86
2019-01-18T04:53:35.898Z,958.84
2019-01-18T04:55:28.958Z,958.93
2019-01-18T04:56:28.778Z,958.96
2019-01-18T04:58:22.260Z,959.00
2019-01-18T04:59:22.267Z,958.99
2019-01-18T05:01:15.113Z,959.03
2019-01-18T05:02:14.991Z,959.05
2019-01-18T05:04:08.534Z,959.08
2019-01-18T05:05:08.308Z,959.14
2019-01-18T05:07:01.680Z,959.17
2019-01-18T05:08:01.642Z,959.15
2019-01-18T05:09:54.678Z,959.21
2019-01-18T05:10:54.503Z,959.25
2019-01-18T05:12:48.570Z,959.29
2019-01-18T05:13:48.365Z,959.30
2019-01-18T05:15:42.337Z,959.40
2019-01-18T05:16:41.926Z,959.43
2019-01-18T05:18:35.437Z,959.51
2019-01-18T05:19:35.316Z,959.44
2019-01-18T06:40:09.473Z,961.00
2019-01-18T06:41:09.263Z,961.03
2019-01-18T06:43:02.929Z,961.05
2019-01-18T06:44:02.663Z,961.10
2019-01-18T06:45:56.046Z,961.14
2019-01-18T06:46:55.934Z,961.14
2019-01-18T06:48:49.483Z,961.17
2019-01-18T06:49:49.299Z,961.16
2019-01-18T06:51:42.958Z,961.23
2019-01-18T06:52:42.701Z,961.22
2019-01-18T06:54:36.148Z,961.24
2019-01-18T06:55:35.935Z,961.28
2019-01-18T06:57:29.437Z,961.33
2019-01-18T06:58:29.272Z,961.33
2019-01-18T07:00:22.607Z,961.42
2019-01-18T07:01:22.608Z,961.47
2019-01-18T07:03:15.993Z,961.49
2019-01-18T07:04:15.971Z,961.49
2019-01-18T07:06:08.830Z,961.48
2019-01-18T07:07:08.752Z,961.51
2019-01-18T07:09:02.420Z,961.55
2019-01-18T07:10:02.200Z,961.56
2019-01-18T07:11:55.115Z,961.58
2019-01-18T07:12:54.948Z,961.61
2019-01-18T07:14:48.298Z,961.65
2019-01-18T07:15:48.232Z,961.62
2019-01-18T07:17:41.754Z,961.63
2019-01-18T07:18:41.576Z,961.65
2019-01-18T07:20:35.014Z,961.74
2019-01-18T07:21:34.973Z,961.71
2019-01-18T07:23:27.871Z,961.77
2019-01-18T07:24:27.711Z,961.75
2019-01-18T07:26:21.254Z,961.80
2019-01-18T07:27:21.027Z,961.85
2019-01-18T07:29:14.040Z,961.77
2019-01-18T07:30:13.833Z,961.82
2019-01-18T07:32:06.777Z,961.85
2019-01-18T07:33:06.696Z,961.87
2019-01-18T07:35:00.290Z,961.90
2019-01-18T07:36:00.010Z,961.89
2019-01-18T07:37:53.591Z,961.95
2019-01-18T07:38:53.409Z,961.95
2019-01-18T07:40:46.394Z,961.98
2019-01-18T07:41:46.214Z,962.01
2019-01-18T07:43:39.723Z,962.03
2019-01-18T07:44:39.663Z,962.03
2019-01-18T07:46:32.617Z,962.06
2019-01-18T07:47:32.542Z,962.04
2019-01-18T07:49:25.580Z,962.16
2019-01-18T07:50:25.243Z,962.10
2019-01-18T07:52:18.797Z,962.18
2019-01-18T07:53:18.665Z,962.21
2019-01-18T07:55:12.302Z,962.15
2019-01-18T07:56:12.286Z,962.18
2019-01-18T07:58:04.999Z,962.23
2019-01-18T07:59:04.838Z,962.24
2019-01-18T08:00:58.459Z,962.21
2019-01-18T08:01:58.204Z,962.23
2019-01-18T08:03:52.085Z,962.23
2019-01-18T08:04:51.824Z,962.25
2019-01-18T08:06:45.116Z,962.34
2019-01-18T08:07:44.739Z,962.37
2019-01-18T08:09:38.407Z,962.42
2019-01-18T08:10:38.153Z,962.42
2019-01-18T08:12:31.816Z,962.51
2019-01-18T08:13:31.420Z,962.52
2019-01-18T08:15:25.141Z,962.56
2019-01-18T08:16:24.763Z,962.59
2019-01-18T08:18:18.452Z,962.62
2019-01-18T08:19:18.354Z,962.67
2019-01-18T08:21:11.459Z,962.66
2019-01-18T08:22:11.373Z,962.70
2019-01-18T08:24:04.519Z,962.75
2019-01-18T08:25:04.641Z,962.80
2019-01-18T08:26:57.943Z,962.80
2019-01-18T08:27:57.912Z,962.86
2019-01-18T08:29:51.151Z,962.86
2019-01-18T08:30:50.951Z,962.80
2019-01-18T08:32:44.554Z,962.84
2019-01-18T08:33:44.190Z,962.81
2019-01-18T08:35:38.040Z,962.82
2019-01-18T08:36:37.781Z,962.79
2019-01-18T08:38:31.354Z,962.81
2019-01-18T08:39:31.773Z,962.86
2019-01-18T08:41:24.908Z,962.92
2019-01-18T08:42:24.353Z,962.86
2019-01-18T08:44:17.814Z,962.91
2019-01-18T08:45:17.621Z,962.97
2019-01-18T08:47:11.255Z,963.04
2019-01-18T08:48:10.935Z,962.98
2019-01-18T08:50:03.971Z,963.06
2019-01-18T08:51:03.938Z,963.07
2019-01-18T08:52:56.673Z,963.16
2019-01-18T08:53:56.622Z,963.22
2019-01-18T08:55:50.160Z,963.60
2019-01-18T08:56:49.997Z,963.74
2019-01-18T08:58:43.326Z,963.83
2019-01-18T08:59:43.311Z,963.76
2019-01-18T09:01:36.318Z,963.65
2019-01-18T09:02:36.131Z,963.73
2019-01-18T09:04:29.514Z,963.85
2019-01-18T09:05:29.813Z,964.05
2019-01-18T09:07:23.611Z,964.40
2019-01-18T09:08:23.627Z,964.41
2019-01-18T09:09:23.533Z,964.45
2019-01-18T09:10:23.444Z,964.44
2019-01-18T09:11:23.626Z,964.24
2019-01-18T09:12:23.239Z,964.14
2019-01-18T09:13:23.226Z,964.32
2019-01-18T09:14:23.263Z,964.46
2019-01-18T09:15:23.277Z,964.52
2019-01-18T09:16:23.220Z,964.52
2019-01-18T09:17:23.228Z,964.63
2019-01-18T09:18:23.210Z,964.72
2019-01-18T09:19:23.207Z,964.66
2019-01-18T09:20:23.207Z,964.61
2019-01-18T09:21:23.202Z,964.56
2019-01-18T09:22:23.202Z,964.56
2019-01-18T09:23:23.203Z,964.45
2019-01-18T09:24:23.203Z,964.48
2019-01-18T09:25:23.202Z,964.61
2019-01-18T09:26:23.217Z,964.62
2019-01-18T09:27:23.224Z,964.53
2019-01-18T09:28:23.207Z,964.56
2019-01-18T09:29:23.214Z,964.47
2019-01-18T09:30:23.207Z,964.49
2019-01-18T09:31:23.212Z,964.54
2019-01-18T09:32:23.218Z,964.57
2019-01-18T09:33:23.222Z,964.54
2019-01-18T09:34:23.220Z,964.58
2019-01-18T09:35:23.219Z,964.58
2019-01-18T09:36:23.830Z,964.65
2019-01-18T09:37:23.230Z,964.70
2019-01-18T09:38:23.242Z,964.72
2019-01-18T09:39:23.256Z,964.67
2019-01-18T09:40:23.277Z,964.70
2019-01-18T09:41:23.255Z,964.68
2019-01-18T09:42:23.239Z,964.72
2019-01-18T09:43:23.301Z,964.72
2019-01-18T09:44:23.310Z,964.79
2019-01-18T09:45:23.257Z,964.82
2019-01-18T09:46:23.271Z,964.84
2019-01-18T09:47:23.268Z,964.85
2019-01-18T09:48:23.290Z,964.88
2019-01-18T09:49:23.272Z,964.79
2019-01-18T09:50:23.296Z,964.80
2019-01-18T09:51:23.338Z,964.83
2019-01-18T09:52:23.355Z,964.86
2019-01-18T09:53:23.291Z,964.85
2019-01-18T09:54:23.297Z,964.83
2019-01-18T09:55:23.332Z,964.88
2019-01-18T09:56:23.320Z,964.88
2019-01-18T09:57:23.323Z,964.90
2019-01-18T09:58:23.329Z,964.89
2019-01-18T09:59:23.353Z,964.95
2019-01-18T10:00:23.366Z,964.97
2019-01-18T10:01:23.379Z,964.97
2019-01-18T10:02:23.373Z,964.99
2019-01-18T10:03:23.386Z,965.00
2019-01-18T10:04:23.405Z,965.00
2019-01-18T10:05:23.406Z,965.06
2019-01-18T10:06:23.399Z,965.06
2019-01-18T10:07:23.384Z,965.05
2019-01-18T10:08:23.396Z,965.05
2019-01-18T10:09:23.411Z,965.06
2019-01-18T10:10:23.410Z,965.05
2019-01-18T10:11:23.418Z,965.12
2019-01-18T10:12:23.423Z,965.14
2019-01-18T10:13:23.430Z,965.15
2019-01-18T10:14:23.448Z,965.17
2019-01-18T10:15:23.462Z,965.19
2019-01-18T10:16:23.455Z,965.17
2019-01-18T10:17:23.479Z,965.23
2019-01-18T10:18:23.510Z,965.21
2019-01-18T10:19:23.484Z,965.24
2019-01-18T10:20:23.491Z,965.19
2019-01-18T10:21:23.504Z,965.22
2019-01-18T10:22:23.507Z,965.20
2019-01-18T10:23:23.522Z,965.18
2019-01-18T10:24:23.532Z,965.16
2019-01-18T10:25:23.538Z,965.13
2019-01-18T10:26:23.556Z,965.14
2019-01-18T10:27:23.973Z,965.14
2019-01-18T10:28:23.561Z,965.08
2019-01-18T10:29:28.089Z,965.11
2019-01-18T10:30:23.581Z,965.10
2019-01-18T10:31:23.597Z,965.08
2019-01-18T10:32:23.598Z,965.12
2019-01-18T10:33:23.612Z,965.12
2019-01-18T10:34:23.636Z,965.09
2019-01-18T10:35:23.633Z,965.08
2019-01-18T10:36:23.648Z,965.14
2019-01-18T10:37:23.651Z,965.15
2019-01-18T10:38:23.659Z,965.15
2019-01-18T10:39:23.662Z,965.14
2019-01-18T10:40:23.675Z,965.17
2019-01-18T10:41:23.681Z,965.19
2019-01-18T10:42:23.694Z,965.25
2019-01-18T10:43:23.701Z,965.23
2019-01-18T10:44:23.726Z,965.27
2019-01-18T10:45:23.720Z,965.27
2019-01-18T10:46:23.736Z,965.28
2019-01-18T10:47:23.743Z,965.31
2019-01-18T10:48:23.806Z,965.30
2019-01-18T10:49:23.780Z,965.31
2019-01-18T10:50:23.812Z,965.26
2019-01-18T10:51:23.788Z,965.25
2019-01-18T10:52:23.789Z,965.20
2019-01-18T10:53:23.804Z,965.17
2019-01-18T10:54:23.807Z,965.12
2019-01-18T10:55:23.821Z,964.92
2019-01-18T10:56:23.833Z,964.87
2019-01-18T10:57:23.845Z,964.77
2019-01-18T10:58:23.850Z,964.79
2019-01-18T10:59:23.857Z,964.75
2019-01-18T11:00:23.873Z,964.70
2019-01-18T11:01:23.905Z,964.64
2019-01-18T11:02:23.888Z,964.63
2019-01-18T11:03:23.888Z,964.57
2019-01-18T11:04:23.892Z,964.48
2019-01-18T11:05:23.927Z,964.47
2019-01-18T11:06:23.904Z,964.42
2019-01-18T11:07:23.937Z,964.46
2019-01-18T11:08:23.913Z,964.47
2019-01-18T11:09:23.919Z,964.42
2019-01-18T11:10:23.957Z,964.39
2019-01-18T11:11:23.959Z,964.40
2019-01-18T11:12:23.983Z,964.37
2019-01-18T11:13:23.946Z,964.38
2019-01-18T11:14:23.980Z,964.38
2019-01-18T11:15:24.900Z,964.37
2019-01-18T11:16:23.964Z,964.37
2019-01-18T11:17:23.958Z,964.39
2019-01-18T11:18:23.955Z,964.36
2019-01-18T11:19:23.954Z,964.37
2019-01-18T11:20:23.952Z,964.34
2019-01-18T11:21:23.967Z,964.35
2019-01-18T11:22:23.982Z,964.32
2019-01-18T11:23:23.955Z,964.32
2019-01-18T11:24:23.960Z,964.34
2019-01-18T11:25:23.958Z,964.36
2019-01-18T11:26:23.985Z,964.36
2019-01-18T11:27:23.967Z,964.29
2019-01-18T11:28:23.956Z,964.28
2019-01-18T11:29:23.950Z,964.28
2019-01-18T11:30:23.954Z,964.33
2019-01-18T11:31:23.966Z,964.34
2019-01-18T11:32:23.952Z,964.34
2019-01-18T11:33:23.954Z,964.32
2019-01-18T11:34:23.950Z,964.30
2019-01-18T11:35:23.946Z,964.25
2019-01-18T11:36:23.948Z,964.33
2019-01-18T11:37:23.973Z,964.27
2019-01-18T11:38:23.940Z,964.30
2019-01-18T11:39:23.944Z,964.33
2019-01-18T11:40:23.964Z,964.37
2019-01-18T11:41:23.932Z,964.33
2019-01-18T11:42:23.936Z,964.33
2019-01-18T11:43:23.965Z,964.32
2019-01-18T11:44:23.930Z,964.30
2019-01-18T11:45:23.947Z,964.28
2019-01-18T11:46:23.922Z,964.32
2019-01-18T11:47:23.971Z,964.33
2019-01-18T11:48:23.939Z,964.34
2019-01-18T11:49:23.912Z,964.36
2019-01-18T11:50:23.908Z,964.35
2019-01-18T11:51:23.914Z,964.30
2019-01-18T11:52:23.928Z,964.33
2019-01-18T11:53:23.954Z,964.36
2019-01-18T11:54:23.923Z,964.39
2019-01-18T11:55:23.925Z,964.37
2019-01-18T11:56:23.922Z,964.36
2019-01-18T11:57:23.892Z,964.37
2019-01-18T11:58:23.886Z,964.43
2019-01-18T11:59:23.881Z,964.42
2019-01-18T12:00:23.902Z,964.46
2019-01-18T12:01:23.987Z,964.45
2019-01-18T12:02:23.895Z,964.45
2019-01-18T12:03:23.892Z,964.47
2019-01-18T12:04:23.905Z,964.51
2019-01-18T12:05:23.948Z,964.52
2019-01-18T12:06:23.893Z,964.48
2019-01-18T12:07:23.851Z,964.45
2019-01-18T12:08:23.905Z,964.47
2019-01-18T12:09:23.885Z,964.49
2019-01-18T12:10:23.861Z,964.44
2019-01-18T12:11:23.882Z,964.43
2019-01-18T12:12:23.873Z,964.45
2019-01-18T12:13:23.830Z,964.44
2019-01-18T12:14:23.853Z,964.45
2019-01-18T12:15:23.851Z,964.43
2019-01-18T12:16:23.852Z,964.42
2019-01-18T12:17:23.886Z,964.43
2019-01-18T12:18:23.808Z,964.38
2019-01-18T12:19:23.793Z,964.41
2019-01-18T12:20:23.799Z,964.42
2019-01-18T12:21:23.810Z,964.38
2019-01-18T12:22:23.805Z,964.36
2019-01-18T12:23:23.796Z,964.37
2019-01-18T12:24:23.790Z,964.36
2019-01-18T12:25:23.842Z,964.32
2019-01-18T12:26:23.808Z,964.33
2019-01-18T12:27:23.821Z,964.31
2019-01-18T12:28:23.786Z,964.34
2019-01-18T12:29:23.776Z,964.32
2019-01-18T12:30:23.748Z,964.27
2019-01-18T12:31:23.724Z,964.30
2019-01-18T12:32:28.723Z,964.31
2019-01-18T12:33:23.708Z,964.29
2019-01-18T12:34:23.701Z,964.26
2019-01-18T12:35:23.724Z,964.26
2019-01-18T12:36:23.711Z,964.32
2019-01-18T12:37:23.727Z,964.24
2019-01-18T12:38:23.673Z,964.28
2019-01-18T12:39:23.683Z,964.29
2019-01-18T12:40:23.709Z,964.26
2019-01-18T12:41:23.675Z,964.29
2019-01-18T12:42:23.658Z,964.29
2019-01-18T12:43:23.674Z,964.30
2019-01-18T12:44:23.984Z,964.28
2019-01-18T12:45:23.640Z,964.33
2019-01-18T12:46:23.659Z,964.32
2019-01-18T12:47:23.621Z,964.29
2019-01-18T12:48:23.613Z,964.29
2019-01-18T12:49:23.612Z,964.31
2019-01-18T12:50:23.679Z,964.32
2019-01-18T12:51:23.646Z,964.25
2019-01-18T12:52:23.595Z,964.29
2019-01-18T12:53:23.585Z,964.30
2019-01-18T12:54:23.607Z,964.28
2019-01-18T12:55:23.581Z,964.24
2019-01-18T12:56:23.596Z,964.32
2019-01-18T12:57:23.597Z,964.28
2019-01-18T12:58:23.621Z,964.26
2019-01-18T12:59:23.550Z,964.30
2019-01-18T13:00:23.552Z,964.29
2019-01-18T13:01:23.552Z,964.29
2019-01-18T13:02:35.334Z,964.28
2019-01-18T13:04:16.665Z,964.30
2019-01-18T13:05:17.013Z,964.34
2019-01-18T13:07:10.137Z,964.32
2019-01-18T13:08:09.781Z,964.36
2019-01-18T13:10:03.600Z,964.36
2019-01-18T13:11:03.605Z,964.36
2019-01-18T13:12:57.003Z,964.37
2019-01-18T13:13:56.757Z,964.35
2019-01-18T13:14:57.366Z,964.40
2019-01-18T13:15:56.723Z,964.37
2019-01-18T13:16:56.858Z,964.33
2019-01-18T13:17:57.592Z,964.38
2019-01-18T13:18:56.605Z,964.33
2019-01-18T13:19:57.545Z,964.37
2019-01-18T13:20:56.687Z,964.33
2019-01-18T13:21:56.560Z,964.32
2019-01-18T13:22:56.564Z,964.28
2019-01-18T13:23:56.552Z,964.30
2019-01-18T13:25:03.949Z,964.26
2019-01-18T13:26:50.351Z,964.24
2019-01-18T13:27:50.800Z,964.17
2019-01-18T13:29:43.022Z,964.19
2019-01-18T13:30:43.108Z,964.18
2019-01-18T13:32:41.577Z,964.20
2019-01-18T13:33:36.713Z,964.18
2019-01-18T13:35:31.829Z,964.19
2019-01-18T13:36:31.409Z,964.21
2019-01-18T13:37:31.344Z,964.18
2019-01-18T13:38:31.233Z,964.19
2019-01-18T13:39:31.411Z,964.22
2019-01-18T13:40:31.040Z,964.24
2019-01-18T13:41:31.077Z,964.21
2019-01-18T13:42:31.113Z,964.24
2019-01-18T13:43:31.049Z,964.24
2019-01-18T13:44:30.974Z,964.25
2019-01-18T13:45:31.043Z,964.21
2019-01-18T13:46:30.971Z,964.23
2019-01-18T13:47:30.992Z,964.24
2019-01-18T13:48:31.017Z,964.23
2019-01-18T13:49:30.984Z,964.23
2019-01-18T13:50:30.970Z,964.30
2019-01-18T13:51:30.947Z,964.29
2019-01-18T13:52:31.034Z,964.35
2019-01-18T13:53:31.666Z,964.35
2019-01-18T13:55:24.670Z,964.37
2019-01-18T13:56:24.635Z,964.41
2019-01-18T13:58:17.551Z,964.44
2019-01-18T13:59:17.669Z,964.43
2019-01-18T14:00:17.377Z,964.46
2019-01-18T14:01:17.761Z,964.50
2019-01-18T14:02:17.204Z,964.50
2019-01-18T14:03:17.194Z,964.53
2019-01-18T14:04:17.253Z,964.57
2019-01-18T14:05:17.207Z,964.57
2019-01-18T14:06:17.198Z,964.61
2019-01-18T14:07:17.193Z,964.60
2019-01-18T14:08:17.191Z,964.61
2019-01-18T14:09:17.164Z,964.68
2019-01-18T14:10:17.179Z,964.69
2019-01-18T14:11:17.151Z,964.72
2019-01-18T14:12:17.867Z,964.68
2019-01-18T14:13:17.195Z,964.73
2019-01-18T14:14:17.124Z,964.65
2019-01-18T14:15:17.160Z,964.66
2019-01-18T14:16:17.361Z,964.70
2019-01-18T14:17:18.148Z,964.70
2019-01-18T14:18:17.136Z,964.73
2019-01-18T14:19:17.120Z,964.74
2019-01-18T14:20:20.878Z,964.75
2019-01-18T14:21:24.380Z,964.73
2019-01-18T14:23:10.621Z,964.81
2019-01-18T14:24:10.571Z,964.80
2019-01-18T14:26:03.535Z,964.78
2019-01-18T14:27:03.720Z,964.71
2019-01-18T14:28:56.878Z,964.63
2019-01-18T14:29:56.858Z,964.59
2019-01-18T14:31:49.735Z,964.60
2019-01-18T14:32:55.461Z,964.58
2019-01-18T14:34:43.612Z,964.55
2019-01-18T14:35:43.152Z,964.50
2019-01-18T14:37:36.177Z,964.51
2019-01-18T14:38:36.324Z,964.52
2019-01-18T14:39:43.373Z,964.51
2019-01-18T14:41:31.165Z,964.54
2019-01-18T14:42:32.246Z,964.52
2019-01-18T14:44:23.236Z,964.52
2019-01-18T14:45:22.959Z,964.52
2019-01-18T14:47:16.715Z,964.53
2019-01-18T14:48:16.474Z,964.52
2019-01-18T14:50:10.096Z,964.51
2019-01-18T14:51:09.816Z,964.51
2019-01-18T14:53:02.885Z,964.51
2019-01-18T14:54:02.623Z,964.52
2019-01-18T14:55:56.307Z,964.54
2019-01-18T14:56:57.995Z,964.58
2019-01-18T14:57:55.975Z,964.52
2019-01-18T14:58:56.112Z,964.50
2019-01-18T14:59:55.901Z,964.46
2019-01-18T15:00:55.880Z,964.47
2019-01-18T15:01:55.859Z,964.50
2019-01-18T15:03:02.051Z,964.52
2019-01-18T15:03:55.843Z,964.50
2019-01-18T15:04:55.851Z,964.52
2019-01-18T15:05:55.839Z,964.61
2019-01-18T15:06:55.823Z,964.56
2019-01-18T15:07:55.809Z,964.54
2019-01-18T15:08:55.830Z,964.54
2019-01-18T15:09:57.646Z,964.57
2019-01-18T15:10:55.817Z,964.57
2019-01-18T15:11:55.847Z,964.56
2019-01-18T15:12:55.770Z,964.55
2019-01-18T15:13:55.769Z,964.59
2019-01-18T15:14:55.754Z,964.58
2019-01-18T15:15:55.746Z,964.66